Time;durP1;ratioP1;P1;durP2;ratioP2;P2;SDS_P1;SDS_P2;PMS_P1;PMS_P2;Temp;Humidity;BMP_temperature;BMP_pressure;BME280_temperature;BME280_humidity;BME280_pressure;Samples;Min_cycle;Max_cycle;Signal;HPM_P1;HPM_P2
2023/07/16 00:01:43;;;;;;;1.55;0.95;;;15.80;99.90;;;;;;5072171;28;20372;-61
2023/07/16 00:04:09;;;;;;;2.28;0.75;;;15.80;99.90;;;;;;5072759;28;20048;-62
2023/07/16 00:06:34;;;;;;;0.85;0.70;;;15.80;99.90;;;;;;5071298;28;20054;-63
2023/07/16 00:09:00;;;;;;;1.95;1.08;;;15.80;99.90;;;;;;5071413;28;20040;-63
2023/07/16 00:11:26;;;;;;;4.07;0.90;;;15.80;99.90;;;;;;5071470;28;20127;-63
2023/07/16 00:13:52;;;;;;;3.00;1.00;;;15.80;99.90;;;;;;5055453;28;20054;-63
2023/07/16 00:16:18;;;;;;;4.07;0.70;;;15.80;99.90;;;;;;5090257;28;20062;-62
2023/07/16 00:18:47;;;;;;;4.03;0.77;;;15.80;99.90;;;;;;5054645;28;20460;-62
2023/07/16 00:21:13;;;;;;;4.70;0.68;;;15.80;99.90;;;;;;5072029;28;20074;-63
2023/07/16 00:23:43;;;;;;;2.30;0.82;;;15.80;99.90;;;;;;5054615;28;20488;-63
2023/07/16 00:26:24;;;;;;;;;;;15.80;99.90;;;;;;5068582;28;20051;-63
2023/07/16 00:28:55;;;;;;;4.07;0.73;;;15.80;99.90;;;;;;5052384;28;19916;-63
2023/07/16 00:31:21;;;;;;;1.75;0.60;;;15.80;99.90;;;;;;5068093;28;20047;-62
2023/07/16 00:33:47;;;;;;;3.67;0.73;;;15.80;99.90;;;;;;5051778;28;20045;-63
2023/07/16 00:36:13;;;;;;;2.08;0.90;;;15.80;99.90;;;;;;5069683;28;20474;-63
2023/07/16 00:38:42;;;;;;;3.63;1.17;;;15.80;99.90;;;;;;5067646;28;20083;-62
2023/07/16 00:41:08;;;;;;;4.87;0.50;;;15.90;99.90;;;;;;5049813;28;20454;-62
2023/07/16 00:43:34;;;;;;;3.85;0.93;;;15.90;99.90;;;;;;5052228;28;20037;-63
2023/07/16 00:46:00;;;;;;;1.17;0.75;;;15.90;99.90;;;;;;5066391;28;20539;-63
2023/07/16 00:48:26;;;;;;;1.25;0.60;;;16.00;99.90;;;;;;5055502;28;20062;-62
2023/07/16 00:50:54;;;;;;;1.33;0.63;;;16.00;99.90;;;;;;5055550;28;20377;-63
2023/07/16 00:53:21;;;;;;;4.35;1.13;;;16.00;99.90;;;;;;5046815;28;20377;-63
2023/07/16 00:55:47;;;;;;;4.15;1.15;;;16.00;99.90;;;;;;5062706;28;20041;-63
2023/07/16 00:58:13;;;;;;;13.15;1.35;;;16.10;99.90;;;;;;5055361;28;20356;-63
2023/07/16 01:00:42;;;;;;;1.33;0.60;;;16.10;99.90;;;;;;5037536;28;20040;-62
2023/07/16 01:03:11;;;;;;;1.73;0.63;;;16.10;99.90;;;;;;5038225;28;20051;-62
2023/07/16 01:05:46;;;;;;;2.95;0.40;;;16.10;99.90;;;;;;5054517;28;20047;-63
2023/07/16 01:08:16;;;;;;;2.78;1.00;;;16.10;99.90;;;;;;5055220;28;20056;-62
2023/07/16 01:10:42;;;;;;;3.20;0.88;;;16.10;99.90;;;;;;5055256;28;20048;-62
2023/07/16 01:13:08;;;;;;;10.52;0.68;;;16.10;99.90;;;;;;5054130;28;20179;-62
2023/07/16 01:15:34;;;;;;;2.42;1.15;;;16.20;99.90;;;;;;5055155;28;20044;-63
2023/07/16 01:18:00;;;;;;;0.95;0.55;;;16.10;99.90;;;;;;5055211;28;20509;-63
2023/07/16 01:20:26;;;;;;;1.20;0.40;;;16.10;99.90;;;;;;5037627;28;20497;-62
2023/07/16 01:23:35;;;;;;;3.25;0.50;;;16.10;99.90;;;;;;5054935;28;20044;-63
2023/07/16 01:26:32;;;;;;;3.00;0.95;;;16.10;99.90;;;;;;4971161;28;20050;-62
2023/07/16 01:29:15;;;;;;;0.50;0.50;;;16.10;99.90;;;;;;4954807;28;20042;-63
2023/07/16 01:31:41;;;;;;;2.22;0.98;;;16.10;99.90;;;;;;4939151;28;20138;-63
2023/07/16 01:34:09;;;;;;;2.80;0.32;;;16.10;99.90;;;;;;4970667;28;20047;-62
2023/07/16 01:36:36;;;;;;;0.63;0.50;;;16.10;99.90;;;;;;4971344;28;20051;-63
2023/07/16 01:39:02;;;;;;;2.38;0.75;;;16.10;99.90;;;;;;4971648;28;20479;-62
2023/07/16 01:41:28;;;;;;;3.28;1.13;;;16.10;99.90;;;;;;4973732;28;20081;-64
2023/07/16 01:43:54;;;;;;;7.28;0.98;;;16.10;99.90;;;;;;4974528;28;20081;-62
2023/07/16 01:46:19;;;;;;;2.40;0.50;;;16.10;99.90;;;;;;4977466;28;20489;-63
2023/07/16 01:48:45;;;;;;;2.53;1.13;;;16.10;99.90;;;;;;4954419;28;20030;-63
2023/07/16 01:51:13;;;;;;;3.55;0.93;;;16.00;99.90;;;;;;4954550;28;20416;-63
2023/07/16 01:53:40;;;;;;;2.47;0.88;;;16.00;99.90;;;;;;4954514;28;20598;-62
2023/07/16 01:56:06;;;;;;;3.63;1.10;;;16.00;99.90;;;;;;4954385;28;20050;-62
2023/07/16 01:58:32;;;;;;;1.58;0.77;;;16.00;99.90;;;;;;4970584;28;20401;-62
2023/07/16 02:00:58;;;;;;;3.88;1.00;;;16.00;99.90;;;;;;4970802;28;20042;-62
2023/07/16 02:03:24;;;;;;;2.10;0.98;;;15.90;99.90;;;;;;5030850;28;20044;-62
2023/07/16 02:05:50;;;;;;;0.98;0.70;;;15.90;99.90;;;;;;5037348;28;20048;-63
2023/07/16 02:08:17;;;;;;;1.90;0.85;;;15.90;99.90;;;;;;5071734;28;20063;-63
2023/07/16 02:10:44;;;;;;;2.75;0.77;;;16.00;99.90;;;;;;5053309;28;20102;-62
2023/07/16 02:13:09;;;;;;;2.40;0.90;;;16.00;99.90;;;;;;5054157;28;20048;-62
2023/07/16 02:15:35;;;;;;;3.17;0.65;;;16.00;99.90;;;;;;5071813;28;20420;-62
2023/07/16 02:18:01;;;;;;;3.50;1.45;;;16.00;99.90;;;;;;5053120;28;20435;-62
2023/07/16 02:20:27;;;;;;;3.08;1.17;;;16.00;99.90;;;;;;5053632;28;20079;-63
2023/07/16 02:22:53;;;;;;;0.73;0.73;;;16.00;99.90;;;;;;5052789;28;20044;-62
2023/07/16 02:25:18;;;;;;;0.93;0.60;;;16.00;99.90;;;;;;5037485;28;20549;-63
2023/07/16 02:27:44;;;;;;;3.03;1.67;;;16.00;99.90;;;;;;5070223;28;20044;-63
2023/07/16 02:30:10;;;;;;;2.42;0.52;;;16.00;99.90;;;;;;5082348;28;20074;-62
2023/07/16 02:32:36;;;;;;;2.42;1.27;;;16.00;99.90;;;;;;5091697;28;20530;-62
2023/07/16 02:35:03;;;;;;;3.30;1.00;;;16.00;99.90;;;;;;5073307;28;20036;-62
2023/07/16 02:37:29;;;;;;;3.72;1.13;;;16.00;99.90;;;;;;5056016;28;20051;-63
2023/07/16 02:39:54;;;;;;;1.50;0.77;;;16.00;99.90;;;;;;5073620;28;20451;-62
2023/07/16 02:42:20;;;;;;;3.35;1.35;;;16.00;99.90;;;;;;5073245;28;20121;-63
2023/07/16 02:44:46;;;;;;;4.40;1.35;;;16.00;99.90;;;;;;5076083;28;20027;-63
2023/07/16 02:47:12;;;;;;;5.40;1.58;;;16.00;99.90;;;;;;5076504;28;20043;-62
2023/07/16 02:49:38;;;;;;;1.10;0.77;;;16.00;99.90;;;;;;5093505;28;20043;-64
2023/07/16 02:52:06;;;;;;;3.80;0.93;;;16.00;99.90;;;;;;5102258;28;20043;-63
2023/07/16 02:54:32;;;;;;;3.30;1.45;;;16.00;99.90;;;;;;5091144;28;20105;-63
2023/07/16 02:56:58;;;;;;;2.92;1.00;;;16.00;99.90;;;;;;5091246;28;20087;-63
2023/07/16 02:59:24;;;;;;;4.60;1.42;;;16.00;99.90;;;;;;5072117;28;20499;-62
2023/07/16 03:01:51;;;;;;;2.15;0.75;;;16.00;99.90;;;;;;5072800;28;20048;-63
2023/07/16 03:04:16;;;;;;;2.75;1.40;;;16.00;99.90;;;;;;5072516;28;20036;-62
2023/07/16 03:06:42;;;;;;;2.97;1.05;;;16.00;99.90;;;;;;5072081;28;20664;-62
2023/07/16 03:09:08;;;;;;;4.03;1.23;;;15.90;99.90;;;;;;5072659;28;20067;-63
2023/07/16 03:11:34;;;;;;;3.47;1.90;;;16.00;99.90;;;;;;5072998;28;20044;-63
2023/07/16 03:14:00;;;;;;;1.45;0.90;;;15.90;99.90;;;;;;5072044;28;20378;-62
2023/07/16 03:16:25;;;;;;;4.60;1.27;;;15.90;99.90;;;;;;5090878;28;20074;-62
2023/07/16 03:18:53;;;;;;;2.78;1.23;;;15.90;99.90;;;;;;5072275;28;20048;-62
2023/07/16 03:21:18;;;;;;;3.33;1.15;;;15.90;99.90;;;;;;5072597;28;20073;-62
2023/07/16 03:23:44;;;;;;;2.15;1.30;;;15.90;99.90;;;;;;5072543;28;20424;-61
2023/07/16 03:26:10;;;;;;;2.35;1.00;;;15.90;99.90;;;;;;5089463;28;20059;-62
2023/07/16 03:28:36;;;;;;;5.25;1.58;;;15.90;99.90;;;;;;5072721;28;20140;-62
2023/07/16 03:31:02;;;;;;;2.42;1.05;;;15.90;99.90;;;;;;5072567;28;20512;-62
2023/07/16 03:33:28;;;;;;;6.03;1.48;;;15.90;99.90;;;;;;5071844;28;20040;-61
2023/07/16 03:35:53;;;;;;;2.83;1.20;;;15.90;99.90;;;;;;5072465;28;20071;-62
2023/07/16 03:38:19;;;;;;;1.95;0.88;;;15.90;99.90;;;;;;5072360;28;20193;-62
2023/07/16 03:40:49;;;;;;;4.03;1.05;;;15.90;99.90;;;;;;5071716;28;20051;-62
2023/07/16 03:43:16;;;;;;;3.72;1.20;;;15.90;99.90;;;;;;5072319;28;20507;-61
2023/07/16 03:45:42;;;;;;;8.85;1.90;;;15.90;99.90;;;;;;5072129;28;20051;-63
2023/07/16 03:48:09;;;;;;;7.13;1.50;;;15.90;99.90;;;;;;5055043;28;20040;-62
2023/07/16 03:50:35;;;;;;;2.33;1.10;;;15.90;99.90;;;;;;5090206;28;20040;-62
2023/07/16 03:53:05;;;;;;;2.30;1.10;;;15.90;99.90;;;;;;5072215;28;20488;-63
2023/07/16 03:55:31;;;;;;;8.60;1.80;;;15.90;99.90;;;;;;5071848;28;20043;-63
2023/07/16 03:57:57;;;;;;;1.55;0.77;;;15.90;99.90;;;;;;5072425;28;20558;-62
2023/07/16 04:00:23;;;;;;;5.30;1.33;;;15.90;99.90;;;;;;5103574;28;20043;-63
2023/07/16 04:02:49;;;;;;;3.05;1.58;;;15.90;99.90;;;;;;5109909;28;20117;-63
2023/07/16 04:05:15;;;;;;;2.00;1.13;;;16.00;99.90;;;;;;5092304;28;20131;-63
2023/07/16 04:07:41;;;;;;;8.15;1.55;;;16.00;99.90;;;;;;5092026;28;20071;-62
2023/07/16 04:10:07;;;;;;;4.57;1.73;;;16.00;99.90;;;;;;5092209;28;20039;-64
2023/07/16 04:12:33;;;;;;;3.38;1.42;;;16.00;99.90;;;;;;5092294;28;20097;-63
2023/07/16 04:14:59;;;;;;;4.43;1.55;;;16.00;99.90;;;;;;5097522;28;20044;-63
2023/07/16 04:17:25;;;;;;;4.45;1.15;;;16.00;99.90;;;;;;5076017;28;20079;-62
2023/07/16 04:19:51;;;;;;;6.25;1.70;;;16.10;99.90;;;;;;5075965;28;20051;-63
2023/07/16 04:22:17;;;;;;;2.78;1.02;;;16.20;99.90;;;;;;5093211;28;20059;-62
2023/07/16 04:24:43;;;;;;;4.43;1.85;;;16.20;99.90;;;;;;5094228;28;20032;-63
2023/07/16 04:27:09;;;;;;;4.68;1.77;;;16.30;99.90;;;;;;5075528;28;20186;-62
2023/07/16 04:29:35;;;;;;;3.70;1.45;;;16.30;99.90;;;;;;5058467;28;20566;-62
2023/07/16 04:32:01;;;;;;;2.88;1.25;;;16.40;99.90;;;;;;5076119;28;20075;-62
2023/07/16 04:34:27;;;;;;;4.55;1.70;;;16.40;99.90;;;;;;5075953;28;20039;-62
2023/07/16 04:36:53;;;;;;;3.15;1.23;;;16.40;99.90;;;;;;5075331;28;20432;-62
2023/07/16 04:39:19;;;;;;;6.55;1.17;;;16.40;99.90;;;;;;5075615;28;20544;-63
2023/07/16 04:41:45;;;;;;;6.68;1.60;;;16.40;99.90;;;;;;5075613;28;20050;-63
2023/07/16 04:44:10;;;;;;;6.78;1.38;;;16.50;99.90;;;;;;5087712;28;20037;-63
2023/07/16 04:46:36;;;;;;;5.63;1.75;;;16.50;99.90;;;;;;5076110;28;20036;-62
2023/07/16 04:49:04;;;;;;;6.03;2.15;;;16.60;99.90;;;;;;5114138;28;20046;-63
2023/07/16 04:51:30;;;;;;;2.83;1.73;;;16.60;99.90;;;;;;5095109;28;20039;-62
2023/07/16 04:53:56;;;;;;;5.35;1.73;;;16.70;99.90;;;;;;5088864;28;20099;-63
2023/07/16 04:56:22;;;;;;;2.70;1.10;;;16.80;99.90;;;;;;5058530;28;20614;-63
2023/07/16 04:58:47;;;;;;;2.33;1.52;;;16.80;99.90;;;;;;5072414;28;20154;-63
2023/07/16 05:01:13;;;;;;;2.60;1.38;;;16.80;99.90;;;;;;5073015;28;20507;-63
2023/07/16 05:03:39;;;;;;;4.32;2.10;;;16.80;99.90;;;;;;5054569;28;20091;-64
2023/07/16 05:06:05;;;;;;;3.45;1.27;;;16.90;99.90;;;;;;5055178;28;20040;-62
2023/07/16 05:08:31;;;;;;;2.33;1.38;;;16.90;99.90;;;;;;5055306;28;20136;-64
2023/07/16 05:10:57;;;;;;;3.05;1.52;;;16.90;99.90;;;;;;5082863;28;20028;-63
2023/07/16 05:13:23;;;;;;;7.22;2.22;;;16.90;99.90;;;;;;5075330;28;20428;-63
2023/07/16 05:15:48;;;;;;;5.13;1.02;;;16.90;99.90;;;;;;5075113;28;20496;-63
2023/07/16 05:18:15;;;;;;;5.38;1.40;;;17.00;99.90;;;;;;5074140;28;20068;-62
2023/07/16 05:20:41;;;;;;;1.98;0.95;;;17.10;99.90;;;;;;5074692;28;20082;-63
2023/07/16 05:23:07;;;;;;;5.03;1.02;;;17.20;99.90;;;;;;5092784;28;20067;-63
2023/07/16 05:25:32;;;;;;;3.28;1.40;;;17.20;99.90;;;;;;5073932;28;20051;-64
2023/07/16 05:27:58;;;;;;;4.13;1.45;;;17.20;99.90;;;;;;5074403;28;20366;-64
2023/07/16 05:30:24;;;;;;;5.30;1.17;;;17.10;99.90;;;;;;5074680;28;20054;-63
2023/07/16 05:32:50;;;;;;;8.65;1.70;;;17.10;99.90;;;;;;5074370;28;20116;-64
2023/07/16 05:35:16;;;;;;;1.67;0.85;;;17.10;99.90;;;;;;5074853;28;20044;-64
2023/07/16 05:37:41;;;;;;;4.18;1.35;;;17.20;99.90;;;;;;5074414;28;20424;-62
2023/07/16 05:40:08;;;;;;;1.60;1.23;;;17.20;99.90;;;;;;5071015;28;20222;-65
2023/07/16 05:42:34;;;;;;;4.53;2.20;;;17.20;99.90;;;;;;5072108;28;20048;-63
2023/07/16 05:45:00;;;;;;;3.70;1.63;;;17.30;99.90;;;;;;5065159;28;20028;-63
2023/07/16 05:47:26;;;;;;;5.03;1.50;;;17.40;99.90;;;;;;5094319;28;20034;-63
2023/07/16 05:49:52;;;;;;;3.35;0.95;;;17.50;99.90;;;;;;5094347;28;20498;-63
2023/07/16 05:52:18;;;;;;;5.15;1.33;;;17.60;99.90;;;;;;5094714;28;20050;-62
2023/07/16 05:54:46;;;;;;;5.82;1.30;;;17.70;99.90;;;;;;5093868;28;20792;-63
2023/07/16 05:57:12;;;;;;;6.30;1.90;;;17.80;99.90;;;;;;5094623;28;20426;-64
2023/07/16 05:59:38;;;;;;;3.05;1.23;;;17.90;99.90;;;;;;5084224;28;20036;-64
2023/07/16 06:02:04;;;;;;;5.72;1.80;;;17.90;99.90;;;;;;5074082;28;20044;-64
2023/07/16 06:04:30;;;;;;;5.22;1.42;;;18.00;99.90;;;;;;5073875;28;20460;-63
2023/07/16 06:06:57;;;;;;;3.67;1.48;;;18.00;99.90;;;;;;5091555;28;20042;-64
2023/07/16 06:09:23;;;;;;;5.03;1.65;;;18.00;99.90;;;;;;5057381;28;20036;-64
2023/07/16 06:11:49;;;;;;;4.43;1.45;;;18.00;99.90;;;;;;5073868;28;20050;-63
2023/07/16 06:14:15;;;;;;;3.03;1.65;;;17.90;99.90;;;;;;5091166;28;20149;-62
2023/07/16 06:16:42;;;;;;;2.53;1.38;;;17.90;99.90;;;;;;5073732;28;20043;-64
2023/07/16 06:19:08;;;;;;;3.45;1.45;;;17.80;99.90;;;;;;5073603;28;20510;-64
2023/07/16 06:21:33;;;;;;;3.72;1.58;;;17.80;99.90;;;;;;5073044;28;20044;-64
2023/07/16 06:23:59;;;;;;;4.30;1.85;;;17.70;99.90;;;;;;5056891;28;20032;-64
2023/07/16 06:26:25;;;;;;;3.20;1.92;;;17.70;99.90;;;;;;5091519;28;20126;-63
2023/07/16 06:28:51;;;;;;;4.45;1.63;;;17.70;99.90;;;;;;5069421;28;20089;-64
2023/07/16 06:31:17;;;;;;;5.20;1.73;;;17.70;99.90;;;;;;5073287;28;20040;-64
2023/07/16 06:33:43;;;;;;;2.95;1.25;;;17.70;99.90;;;;;;5073540;28;20468;-63
2023/07/16 06:36:09;;;;;;;3.60;1.60;;;17.70;99.90;;;;;;5090141;28;20047;-62
2023/07/16 06:38:35;;;;;;;4.95;1.60;;;17.70;99.90;;;;;;5051445;28;20132;-63
2023/07/16 06:41:00;;;;;;;4.82;1.52;;;17.70;99.90;;;;;;5053091;28;20043;-63
2023/07/16 06:43:27;;;;;;;3.78;1.60;;;17.80;99.90;;;;;;5071124;28;20040;-63
2023/07/16 06:45:52;;;;;;;1.67;1.20;;;17.80;99.90;;;;;;5072924;28;20036;-64
2023/07/16 06:48:18;;;;;;;6.43;1.90;;;17.90;99.90;;;;;;5073199;28;20043;-63
2023/07/16 06:50:44;;;;;;;4.90;1.60;;;18.00;99.90;;;;;;5090617;28;20100;-63
2023/07/16 06:53:10;;;;;;;2.10;1.15;;;18.00;99.90;;;;;;5073050;28;20132;-63
2023/07/16 06:55:37;;;;;;;2.92;1.17;;;18.10;99.90;;;;;;5073170;28;20086;-63
2023/07/16 06:58:03;;;;;;;4.05;1.40;;;18.10;99.90;;;;;;5090829;28;20602;-63
2023/07/16 07:00:29;;;;;;;6.75;2.05;;;18.30;99.90;;;;;;5072757;28;20127;-63
2023/07/16 07:02:55;;;;;;;3.05;1.50;;;18.30;99.90;;;;;;5072158;28;20044;-62
2023/07/16 07:05:21;;;;;;;5.88;1.65;;;18.30;99.90;;;;;;5072892;28;20047;-64
2023/07/16 07:07:47;;;;;;;4.53;1.30;;;18.30;99.90;;;;;;5051215;28;20036;-65
2023/07/16 07:10:13;;;;;;;5.18;1.83;;;18.20;99.90;;;;;;5090182;28;20119;-65
2023/07/16 07:12:39;;;;;;;3.88;1.50;;;18.30;99.90;;;;;;5039149;28;20072;-63
2023/07/16 07:15:08;;;;;;;3.03;1.33;;;18.50;99.90;;;;;;5066891;28;20036;-64
2023/07/16 07:17:35;;;;;;;5.10;1.92;;;18.60;99.90;;;;;;5052046;28;20580;-63
2023/07/16 07:20:01;;;;;;;7.93;1.67;;;18.60;99.90;;;;;;5052475;28;20047;-65
2023/07/16 07:22:27;;;;;;;5.53;2.17;;;18.60;99.90;;;;;;5070546;28;20119;-64
2023/07/16 07:24:53;;;;;;;4.82;1.42;;;18.70;99.90;;;;;;5072394;28;20461;-65
2023/07/16 07:27:19;;;;;;;4.45;1.85;;;18.70;99.90;;;;;;5090598;28;20036;-63
2023/07/16 07:29:46;;;;;;;5.55;1.55;;;18.70;99.90;;;;;;5063585;28;20102;-63
2023/07/16 07:32:12;;;;;;;8.48;1.65;;;18.70;99.90;;;;;;5051878;28;20493;-63
2023/07/16 07:34:39;;;;;;;5.00;1.38;;;18.60;99.90;;;;;;5067352;28;20117;-64
2023/07/16 07:37:05;;;;;;;4.57;1.58;;;18.70;99.90;;;;;;5051124;28;20049;-64
2023/07/16 07:39:31;;;;;;;4.28;1.63;;;18.80;99.90;;;;;;5069677;28;20405;-63
2023/07/16 07:41:57;;;;;;;3.67;1.67;;;18.80;99.90;;;;;;5063297;28;20044;-63
2023/07/16 07:44:22;;;;;;;3.38;1.25;;;18.80;99.90;;;;;;5072034;28;20047;-62
2023/07/16 07:46:48;;;;;;;2.75;1.27;;;18.80;99.90;;;;;;5089806;28;20040;-62
2023/07/16 07:49:14;;;;;;;3.72;1.33;;;18.80;99.90;;;;;;5071979;28;20047;-63
2023/07/16 07:51:40;;;;;;;2.42;1.23;;;18.70;99.90;;;;;;5071786;28;20075;-64
2023/07/16 07:54:05;;;;;;;5.40;1.63;;;18.70;99.90;;;;;;5072380;28;20498;-64
2023/07/16 07:56:31;;;;;;;5.50;2.03;;;18.60;99.90;;;;;;5055254;28;20047;-64
2023/07/16 07:58:57;;;;;;;7.50;2.67;;;18.60;99.90;;;;;;5054790;28;20047;-63
2023/07/16 08:01:23;;;;;;;5.03;1.70;;;18.60;99.90;;;;;;5072116;28;20036;-63
2023/07/16 08:03:49;;;;;;;5.13;2.03;;;18.60;99.90;;;;;;5090235;28;20485;-63
2023/07/16 08:06:15;;;;;;;3.83;1.45;;;18.60;99.90;;;;;;5089596;28;20074;-63
2023/07/16 08:08:41;;;;;;;4.95;1.95;;;18.70;99.90;;;;;;5065635;28;20049;-63
2023/07/16 08:11:06;;;;;;;2.97;1.13;;;18.70;99.90;;;;;;5068557;28;20059;-64
2023/07/16 08:13:32;;;;;;;2.72;1.58;;;18.90;99.90;;;;;;5069358;28;20043;-63
2023/07/16 08:15:58;;;;;;;2.88;1.38;;;18.90;99.90;;;;;;5070104;28;20036;-64
2023/07/16 08:18:24;;;;;;;7.93;2.13;;;19.10;99.90;;;;;;5068898;28;20371;-64
2023/07/16 08:20:50;;;;;;;1.88;1.27;;;19.40;99.90;;;;;;5068907;28;20039;-62
2023/07/16 08:23:16;;;;;;;2.90;1.73;;;19.60;99.90;;;;;;5071855;28;20492;-64
2023/07/16 08:25:43;;;;;;;3.22;1.60;;;19.60;99.90;;;;;;5071738;28;20060;-63
2023/07/16 08:28:09;;;;;;;4.28;1.65;;;19.60;99.90;;;;;;5071195;28;20044;-62
2023/07/16 08:30:35;;;;;;;2.78;1.40;;;19.80;99.90;;;;;;5054690;28;20036;-63
2023/07/16 08:33:01;;;;;;;8.23;2.38;;;19.80;99.90;;;;;;5051796;28;20089;-61
2023/07/16 08:35:27;;;;;;;2.75;1.40;;;20.00;99.90;;;;;;5051326;28;20044;-61
2023/07/16 08:37:53;;;;;;;2.30;1.30;;;20.10;99.90;;;;;;5060123;28;20502;-63
2023/07/16 08:40:20;;;;;;;2.83;1.10;;;20.20;99.90;;;;;;5071391;28;20040;-62
2023/07/16 08:42:47;;;;;;;2.45;1.08;;;20.40;99.90;;;;;;5071201;28;20048;-62
2023/07/16 08:45:15;;;;;;;5.10;1.50;;;20.50;99.90;;;;;;5072092;28;20188;-62
2023/07/16 08:47:40;;;;;;;3.25;1.70;;;20.50;99.90;;;;;;5071175;28;20048;-63
2023/07/16 08:50:07;;;;;;;3.30;2.08;;;20.40;99.90;;;;;;5071594;28;20047;-63
2023/07/16 08:52:33;;;;;;;4.05;1.13;;;20.10;99.90;;;;;;5054441;28;20040;-63
2023/07/16 08:54:58;;;;;;;4.10;1.70;;;19.90;99.90;;;;;;5070466;28;20032;-63
2023/07/16 08:57:26;;;;;;;1.80;1.05;;;19.70;99.90;;;;;;5089963;28;20048;-63
2023/07/16 08:59:52;;;;;;;5.80;1.58;;;19.70;99.90;;;;;;5073771;28;20052;-63
2023/07/16 09:02:19;;;;;;;3.70;1.42;;;19.60;99.90;;;;;;5093720;28;20048;-62
2023/07/16 09:04:48;;;;;;;3.22;1.83;;;19.90;99.90;;;;;;5075152;28;20405;-62
2023/07/16 09:07:14;;;;;;;;;;;20.20;99.90;;;;;;5075683;28;20078;-62
2023/07/16 09:09:41;;;;;;;2.95;1.20;;;20.40;99.90;;;;;;5092810;28;20311;-62
2023/07/16 09:12:11;;;;;;;6.97;1.95;;;20.50;99.90;;;;;;5058143;28;20544;-62
2023/07/16 09:14:37;;;;;;;2.10;1.23;;;20.40;99.90;;;;;;5092944;28;20040;-61
2023/07/16 09:17:03;;;;;;;3.88;1.73;;;20.20;99.90;;;;;;5073985;28;20040;-63
2023/07/16 09:19:32;;;;;;;3.20;1.60;;;20.10;99.90;;;;;;5081417;28;20040;-62
2023/07/16 09:21:59;;;;;;;3.75;1.45;;;20.10;99.90;;;;;;5092603;28;20044;-62
2023/07/16 09:24:25;;;;;;;4.93;2.08;;;20.30;99.90;;;;;;5070982;28;20044;-63
2023/07/16 09:26:54;;;;;;;2.42;1.35;;;20.50;99.90;;;;;;5068539;28;20389;-63
2023/07/16 09:29:22;;;;;;;6.53;1.98;;;20.60;99.90;;;;;;5074847;28;20040;-62
2023/07/16 09:31:54;;;;;;;4.38;1.02;;;20.80;99.90;;;;;;5086829;28;20699;-61
2023/07/16 09:34:20;;;;;;;2.30;1.60;;;21.10;99.90;;;;;;5073968;28;20036;-61
2023/07/16 09:36:50;;;;;;;3.65;1.38;;;21.10;99.90;;;;;;5092155;28;20043;-62
2023/07/16 09:39:16;;;;;;;;;;;20.80;99.90;;;;;;5077435;28;20086;-62
2023/07/16 09:41:43;;;;;;;1.90;1.00;;;20.70;99.90;;;;;;5054282;28;19921;-62
2023/07/16 09:44:10;;;;;;;2.47;1.45;;;20.60;99.90;;;;;;5038031;28;20043;-62
2023/07/16 09:46:36;;;;;;;3.80;1.30;;;20.70;99.90;;;;;;5048049;28;20488;-62
2023/07/16 09:49:02;;;;;;;2.83;1.40;;;20.90;99.90;;;;;;5068285;28;20046;-62
2023/07/16 09:51:32;;;;;;;1.98;1.05;;;21.40;99.90;;;;;;5070268;28;20059;-61
2023/07/16 09:54:01;;;;;;;3.33;1.50;;;21.90;99.90;;;;;;5090236;28;20075;-63
2023/07/16 09:56:41;;;;;;;4.13;1.67;;;22.20;99.90;;;;;;5069311;28;20586;-62
2023/07/16 09:59:13;;;;;;;3.00;1.23;;;22.20;99.90;;;;;;5091140;28;20040;-62
2023/07/16 10:01:39;;;;;;;2.10;1.35;;;21.90;99.90;;;;;;5092101;28;20044;-64
2023/07/16 10:04:13;;;;;;;2.28;0.90;;;21.40;99.90;;;;;;5056577;28;20039;-63
2023/07/16 10:06:59;;;;;;;4.90;1.52;;;20.90;99.90;;;;;;5066877;28;20050;-63
2023/07/16 10:09:39;;;;;;;3.00;1.15;;;20.60;99.90;;;;;;5073069;28;20079;-63
2023/07/16 10:12:19;;;;;;;2.15;1.27;;;20.50;99.90;;;;;;5053412;28;20041;-63
2023/07/16 10:14:58;;;;;;;2.78;1.33;;;20.60;99.90;;;;;;5041743;28;20044;-63
2023/07/16 10:17:26;;;;;;;2.05;1.27;;;21.00;99.90;;;;;;5071703;28;20068;-63
2023/07/16 10:19:57;;;;;;;3.30;1.20;;;21.10;99.90;;;;;;5058822;28;20036;-63
2023/07/16 10:22:46;;;;;;;2.42;1.10;;;21.10;99.90;;;;;;5082164;28;20046;-63
2023/07/16 10:25:17;;;;;;;2.13;1.25;;;21.10;99.90;;;;;;5051338;28;20085;-64
2023/07/16 10:27:46;;;;;;;4.07;1.58;;;21.40;99.90;;;;;;5063140;28;20534;-62
2023/07/16 10:30:13;;;;;;;2.92;1.38;;;21.70;99.90;;;;;;5036907;28;20101;-62
2023/07/16 10:32:39;;;;;;;4.97;2.25;;;21.80;99.90;;;;;;5086106;28;20440;-63
2023/07/16 10:35:06;;;;;;;3.88;1.35;;;21.80;99.90;;;;;;5069933;28;20036;-61
2023/07/16 10:37:32;;;;;;;1.88;1.02;;;21.90;99.90;;;;;;5068738;28;20380;-63
2023/07/16 10:39:59;;;;;;;4.25;1.55;;;22.10;99.90;;;;;;5058330;28;20127;-64
2023/07/16 10:42:27;;;;;;;2.08;0.80;;;22.10;99.90;;;;;;5065190;28;20048;-65
2023/07/16 10:44:54;;;;;;;2.28;0.85;;;22.00;99.90;;;;;;5083471;28;20036;-63
2023/07/16 10:47:35;;;;;;;2.13;1.20;;;21.80;99.90;;;;;;5064355;28;20064;-62
2023/07/16 10:50:04;;;;;;;4.28;1.05;;;21.60;99.90;;;;;;5087795;28;20051;-64
2023/07/16 10:52:30;;;;;;;4.53;1.42;;;21.30;99.90;;;;;;5063628;28;20509;-62
2023/07/16 10:54:57;;;;;;;2.40;0.68;;;21.10;99.90;;;;;;5061200;28;20093;-64
2023/07/16 10:57:24;;;;;;;3.38;1.17;;;20.80;99.90;;;;;;5084701;28;20048;-64
2023/07/16 10:59:55;;;;;;;2.40;1.15;;;20.70;99.90;;;;;;5088184;28;20036;-64
2023/07/16 11:02:27;;;;;;;4.45;1.02;;;21.10;99.90;;;;;;5045473;28;20043;-63
2023/07/16 11:04:53;;;;;;;2.20;1.15;;;21.50;99.90;;;;;;5065865;28;20055;-62
2023/07/16 11:07:20;;;;;;;2.13;1.20;;;21.40;99.90;;;;;;5084965;28;20032;-63
2023/07/16 11:09:52;;;;;;;4.65;2.47;;;21.20;99.90;;;;;;5066465;28;20037;-64
2023/07/16 11:12:20;;;;;;;4.60;1.38;;;21.10;99.90;;;;;;5064455;28;20051;-63
2023/07/16 11:14:52;;;;;;;5.53;1.65;;;20.90;99.90;;;;;;5063184;28;20115;-63
2023/07/16 11:17:22;;;;;;;2.75;1.08;;;20.70;99.90;;;;;;5069183;28;20046;-64
2023/07/16 11:19:49;;;;;;;2.63;1.63;;;20.50;99.90;;;;;;5067720;28;20358;-65
2023/07/16 11:22:17;;;;;;;3.15;1.17;;;20.30;99.90;;;;;;5068968;28;20040;-65
2023/07/16 11:24:48;;;;;;;5.07;1.90;;;20.10;99.90;;;;;;5068178;28;20047;-65
2023/07/16 11:27:16;;;;;;;2.45;1.27;;;19.90;99.90;;;;;;5065943;28;20052;-64
2023/07/16 11:29:50;;;;;;;6.57;1.92;;;20.00;99.90;;;;;;5066098;28;20036;-65
2023/07/16 11:32:32;;;;;;;3.90;1.58;;;20.10;99.90;;;;;;5051306;28;20032;-64
2023/07/16 11:35:00;;;;;;;4.63;1.50;;;20.30;99.90;;;;;;5084670;28;20040;-64
2023/07/16 11:37:30;;;;;;;2.83;1.15;;;20.50;99.90;;;;;;5065577;28;20093;-63
2023/07/16 11:39:57;;;;;;;2.70;1.10;;;20.80;99.90;;;;;;5088999;28;20043;-64
2023/07/16 11:42:31;;;;;;;3.65;1.60;;;20.90;99.90;;;;;;5067444;28;20128;-64
2023/07/16 11:44:58;;;;;;;3.58;1.60;;;20.80;99.90;;;;;;5066033;28;20067;-64
2023/07/16 11:47:24;;;;;;;4.78;1.77;;;20.50;99.90;;;;;;5088785;28;20044;-63
2023/07/16 11:49:50;;;;;;;3.63;1.90;;;20.20;99.90;;;;;;5083757;28;20032;-62
2023/07/16 11:52:34;;;;;;;6.88;1.55;;;20.00;99.90;;;;;;5069770;28;20055;-63
2023/07/16 11:55:00;;;;;;;6.50;1.77;;;20.20;99.90;;;;;;5069199;28;20103;-63
2023/07/16 11:57:26;;;;;;;3.20;1.45;;;20.40;99.90;;;;;;5068293;28;20043;-63
2023/07/16 11:59:52;;;;;;;3.03;1.40;;;20.60;99.90;;;;;;5065117;28;20051;-63
2023/07/16 12:02:18;;;;;;;4.97;1.70;;;20.80;99.90;;;;;;5091650;28;20047;-63
2023/07/16 12:04:44;;;;;;;4.03;1.58;;;20.70;99.90;;;;;;5070068;28;20037;-64
2023/07/16 12:07:10;;;;;;;4.93;1.20;;;20.60;99.90;;;;;;5071645;28;20032;-63
2023/07/16 12:09:36;;;;;;;2.95;1.38;;;20.50;99.90;;;;;;5059271;28;20043;-62
2023/07/16 12:12:02;;;;;;;2.83;1.20;;;20.30;99.90;;;;;;5071448;28;20036;-63
2023/07/16 12:14:28;;;;;;;4.13;1.42;;;20.40;99.90;;;;;;5057727;28;20055;-63
2023/07/16 12:16:55;;;;;;;4.60;1.35;;;20.70;99.90;;;;;;5069820;28;20492;-64
2023/07/16 12:19:20;;;;;;;3.90;1.55;;;21.00;99.90;;;;;;5051246;28;20051;-64
2023/07/16 12:21:46;;;;;;;2.17;1.50;;;21.10;99.90;;;;;;5051383;28;20123;-63
2023/07/16 12:24:12;;;;;;;2.95;1.45;;;21.20;99.90;;;;;;5089116;28;20035;-62
2023/07/16 12:26:38;;;;;;;2.22;1.13;;;21.10;99.90;;;;;;5050970;28;20057;-64
2023/07/16 12:29:04;;;;;;;2.92;1.30;;;21.00;99.90;;;;;;5088939;28;20109;-63
2023/07/16 12:31:33;;;;;;;2.25;1.40;;;20.80;99.90;;;;;;5071936;28;20048;-63
2023/07/16 12:34:01;;;;;;;3.35;1.00;;;20.60;99.90;;;;;;5071180;28;20079;-63
2023/07/16 12:36:27;;;;;;;2.45;0.90;;;20.40;99.90;;;;;;5072567;28;20112;-63
2023/07/16 12:38:53;;;;;;;3.05;1.50;;;20.30;99.90;;;;;;5092920;28;20447;-63
2023/07/16 12:41:19;;;;;;;4.57;1.73;;;20.20;99.90;;;;;;5057910;28;20519;-63
2023/07/16 12:43:47;;;;;;;3.53;1.45;;;20.20;99.90;;;;;;5074792;28;20047;-63
2023/07/16 12:46:12;;;;;;;3.17;1.42;;;20.40;99.90;;;;;;5075400;28;20032;-63
2023/07/16 12:48:38;;;;;;;2.13;0.98;;;20.70;99.90;;;;;;5061661;28;20447;-63